sensor_id;sensor_type;location;lat;lon;timestamp;P1;P2;P0
56688;PMS5003;42565;53.342;-1.534;2023-03-31T00:00:27;7;6;
56688;PMS5003;42565;53.342;-1.534;2023-03-31T00:02:55;7;5;
56688;PMS5003;42565;53.342;-1.534;2023-03-31T00:05:23;9;6;
56688;PMS5003;42565;53.342;-1.534;2023-03-31T00:07:52;9;6;
56688;PMS5003;42565;53.342;-1.534;2023-03-31T00:10:20;6;5;
56688;PMS5003;42565;53.342;-1.534;2023-03-31T00:12:53;11;7;
56688;PMS5003;42565;53.342;-1.534;2023-03-31T00:15:20;11;6;
56688;PMS5003;42565;53.342;-1.534;2023-03-31T00:17:47;10;7;
56688;PMS5003;42565;53.342;-1.534;2023-03-31T00:20:14;10;5;
56688;PMS5003;42565;53.342;-1.534;2023-03-31T00:22:41;9;8;
56688;PMS5003;42565;53.342;-1.534;2023-03-31T00:25:09;6;6;
56688;PMS5003;42565;53.342;-1.534;2023-03-31T00:27:36;8;7;
56688;PMS5003;42565;53.342;-1.534;2023-03-31T00:30:04;6;5;
56688;PMS5003;42565;53.342;-1.534;2023-03-31T00:32:32;5;5;
56688;PMS5003;42565;53.342;-1.534;2023-03-31T00:34:58;5;5;
56688;PMS5003;42565;53.342;-1.534;2023-03-31T00:37:26;4;3;
56688;PMS5003;42565;53.342;-1.534;2023-03-31T00:39:54;3;3;
56688;PMS5003;42565;53.342;-1.534;2023-03-31T00:42:21;8;6;
56688;PMS5003;42565;53.342;-1.534;2023-03-31T00:45:23;6;6;
56688;PMS5003;42565;53.342;-1.534;2023-03-31T00:47:54;7;5;
56688;PMS5003;42565;53.342;-1.534;2023-03-31T00:50:29;4;3;
56688;PMS5003;42565;53.342;-1.534;2023-03-31T00:53:01;6;4;
56688;PMS5003;42565;53.342;-1.534;2023-03-31T00:55:33;4;4;
56688;PMS5003;42565;53.342;-1.534;2023-03-31T00:58:05;4;4;
56688;PMS5003;42565;53.342;-1.534;2023-03-31T01:00:34;7;7;
56688;PMS5003;42565;53.342;-1.534;2023-03-31T01:03:02;5;5;
56688;PMS5003;42565;53.342;-1.534;2023-03-31T01:05:33;7;5;
56688;PMS5003;42565;53.342;-1.534;2023-03-31T01:08:05;6;5;
56688;PMS5003;42565;53.342;-1.534;2023-03-31T01:10:33;6;5;
56688;PMS5003;42565;53.342;-1.534;2023-03-31T01:13:04;8;5;
56688;PMS5003;42565;53.342;-1.534;2023-03-31T01:15:32;4;2;
56688;PMS5003;42565;53.342;-1.534;2023-03-31T01:17:59;4;2;
56688;PMS5003;42565;53.342;-1.534;2023-03-31T01:20:28;3;3;
56688;PMS5003;42565;53.342;-1.534;2023-03-31T01:23:10;2;2;
56688;PMS5003;42565;53.342;-1.534;2023-03-31T01:27:08;5;3;
56688;PMS5003;42565;53.342;-1.534;2023-03-31T01:29:58;7;5;
56688;PMS5003;42565;53.342;-1.534;2023-03-31T01:33:22;3;2;
56688;PMS5003;42565;53.342;-1.534;2023-03-31T01:37:15;6;4;
56688;PMS5003;42565;53.342;-1.534;2023-03-31T01:40:05;8;5;
56688;PMS5003;42565;53.342;-1.534;2023-03-31T01:42:44;6;5;
56688;PMS5003;42565;53.342;-1.534;2023-03-31T01:45:20;7;7;
56688;PMS5003;42565;53.342;-1.534;2023-03-31T01:47:54;9;7;
56688;PMS5003;42565;53.342;-1.534;2023-03-31T01:50:26;8;6;
56688;PMS5003;42565;53.342;-1.534;2023-03-31T01:52:56;9;7;
56688;PMS5003;42565;53.342;-1.534;2023-03-31T01:55:30;9;7;
56688;PMS5003;42565;53.342;-1.534;2023-03-31T01:58:03;9;7;
56688;PMS5003;42565;53.342;-1.534;2023-03-31T02:00:35;7;6;
56688;PMS5003;42565;53.342;-1.534;2023-03-31T02:03:08;12;5;
56688;PMS5003;42565;53.342;-1.534;2023-03-31T02:05:41;9;6;
56688;PMS5003;42565;53.342;-1.534;2023-03-31T02:08:11;8;7;
56688;PMS5003;42565;53.342;-1.534;2023-03-31T02:10:43;3;3;
56688;PMS5003;42565;53.342;-1.534;2023-03-31T02:13:12;5;5;
56688;PMS5003;42565;53.342;-1.534;2023-03-31T02:15:43;5;5;
56688;PMS5003;42565;53.342;-1.534;2023-03-31T02:18:15;4;3;
56688;PMS5003;42565;53.342;-1.534;2023-03-31T02:20:47;5;4;
56688;PMS5003;42565;53.342;-1.534;2023-03-31T02:23:18;4;4;
56688;PMS5003;42565;53.342;-1.534;2023-03-31T02:25:50;6;5;
56688;PMS5003;42565;53.342;-1.534;2023-03-31T02:28:19;5;4;
56688;PMS5003;42565;53.342;-1.534;2023-03-31T02:30:51;6;6;
56688;PMS5003;42565;53.342;-1.534;2023-03-31T02:33:29;7;6;
56688;PMS5003;42565;53.342;-1.534;2023-03-31T02:35:57;9;6;
56688;PMS5003;42565;53.342;-1.534;2023-03-31T02:38:25;8;8;
56688;PMS5003;42565;53.342;-1.534;2023-03-31T02:40:52;7;5;
56688;PMS5003;42565;53.342;-1.534;2023-03-31T02:43:20;6;6;
56688;PMS5003;42565;53.342;-1.534;2023-03-31T02:45:48;5;5;
56688;PMS5003;42565;53.342;-1.534;2023-03-31T02:48:16;7;6;
56688;PMS5003;42565;53.342;-1.534;2023-03-31T02:50:52;7;5;
56688;PMS5003;42565;53.342;-1.534;2023-03-31T02:53:30;10;7;
56688;PMS5003;42565;53.342;-1.534;2023-03-31T02:56:12;7;7;
56688;PMS5003;42565;53.342;-1.534;2023-03-31T02:58:59;9;6;
56688;PMS5003;42565;53.342;-1.534;2023-03-31T03:01:44;12;7;
56688;PMS5003;42565;53.342;-1.534;2023-03-31T03:04:29;10;7;
56688;PMS5003;42565;53.342;-1.534;2023-03-31T03:07:11;8;6;
56688;PMS5003;42565;53.342;-1.534;2023-03-31T03:09:46;8;8;
56688;PMS5003;42565;53.342;-1.534;2023-03-31T03:12:23;9;9;
56688;PMS5003;42565;53.342;-1.534;2023-03-31T03:14:54;9;8;
56688;PMS5003;42565;53.342;-1.534;2023-03-31T03:17:31;10;10;
56688;PMS5003;42565;53.342;-1.534;2023-03-31T03:20:01;8;8;
56688;PMS5003;42565;53.342;-1.534;2023-03-31T03:22:31;8;7;
56688;PMS5003;42565;53.342;-1.534;2023-03-31T03:24:57;8;7;
56688;PMS5003;42565;53.342;-1.534;2023-03-31T03:27:25;5;5;
56688;PMS5003;42565;53.342;-1.534;2023-03-31T03:29:52;8;7;
56688;PMS5003;42565;53.342;-1.534;2023-03-31T03:32:20;4;4;
56688;PMS5003;42565;53.342;-1.534;2023-03-31T03:34:47;6;6;
56688;PMS5003;42565;53.342;-1.534;2023-03-31T03:37:15;7;6;
56688;PMS5003;42565;53.342;-1.534;2023-03-31T03:39:42;4;4;
56688;PMS5003;42565;53.342;-1.534;2023-03-31T03:42:08;6;6;
56688;PMS5003;42565;53.342;-1.534;2023-03-31T03:44:35;5;4;
56688;PMS5003;42565;53.342;-1.534;2023-03-31T03:47:02;7;7;
56688;PMS5003;42565;53.342;-1.534;2023-03-31T03:49:29;9;8;
56688;PMS5003;42565;53.342;-1.534;2023-03-31T03:51:57;7;7;
56688;PMS5003;42565;53.342;-1.534;2023-03-31T03:54:24;10;10;
56688;PMS5003;42565;53.342;-1.534;2023-03-31T03:56:51;13;11;
56688;PMS5003;42565;53.342;-1.534;2023-03-31T03:59:18;11;9;
56688;PMS5003;42565;53.342;-1.534;2023-03-31T04:01:45;15;14;
56688;PMS5003;42565;53.342;-1.534;2023-03-31T04:04:12;11;10;
56688;PMS5003;42565;53.342;-1.534;2023-03-31T04:06:39;13;12;
56688;PMS5003;42565;53.342;-1.534;2023-03-31T04:09:07;11;11;
56688;PMS5003;42565;53.342;-1.534;2023-03-31T04:11:35;12;12;
56688;PMS5003;42565;53.342;-1.534;2023-03-31T04:14:02;10;10;
56688;PMS5003;42565;53.342;-1.534;2023-03-31T04:16:29;12;10;
56688;PMS5003;42565;53.342;-1.534;2023-03-31T04:18:57;9;8;
56688;PMS5003;42565;53.342;-1.534;2023-03-31T04:21:24;9;9;
56688;PMS5003;42565;53.342;-1.534;2023-03-31T04:23:52;7;7;
56688;PMS5003;42565;53.342;-1.534;2023-03-31T04:26:19;7;7;
56688;PMS5003;42565;53.342;-1.534;2023-03-31T04:28:46;7;7;
56688;PMS5003;42565;53.342;-1.534;2023-03-31T04:31:13;8;7;
56688;PMS5003;42565;53.342;-1.534;2023-03-31T04:33:40;5;5;
56688;PMS5003;42565;53.342;-1.534;2023-03-31T04:36:08;5;4;
56688;PMS5003;42565;53.342;-1.534;2023-03-31T04:38:35;3;3;
56688;PMS5003;42565;53.342;-1.534;2023-03-31T04:41:02;3;3;
56688;PMS5003;42565;53.342;-1.534;2023-03-31T04:43:29;5;4;
56688;PMS5003;42565;53.342;-1.534;2023-03-31T04:45:56;1;1;
56688;PMS5003;42565;53.342;-1.534;2023-03-31T04:48:23;3;3;
56688;PMS5003;42565;53.342;-1.534;2023-03-31T04:50:51;3;3;
56688;PMS5003;42565;53.342;-1.534;2023-03-31T04:53:18;4;3;
56688;PMS5003;42565;53.342;-1.534;2023-03-31T04:55:44;3;2;
56688;PMS5003;42565;53.342;-1.534;2023-03-31T04:58:11;3;3;
56688;PMS5003;42565;53.342;-1.534;2023-03-31T05:00:38;4;3;
56688;PMS5003;42565;53.342;-1.534;2023-03-31T05:03:05;1;1;
56688;PMS5003;42565;53.342;-1.534;2023-03-31T05:05:31;4;4;
56688;PMS5003;42565;53.342;-1.534;2023-03-31T05:07:59;5;5;
56688;PMS5003;42565;53.342;-1.534;2023-03-31T05:10:26;3;3;
56688;PMS5003;42565;53.342;-1.534;2023-03-31T05:12:54;3;3;
56688;PMS5003;42565;53.342;-1.534;2023-03-31T05:15:22;2;2;
56688;PMS5003;42565;53.342;-1.534;2023-03-31T05:17:49;3;3;
56688;PMS5003;42565;53.342;-1.534;2023-03-31T05:20:17;3;3;
56688;PMS5003;42565;53.342;-1.534;2023-03-31T05:22:46;4;3;
56688;PMS5003;42565;53.342;-1.534;2023-03-31T05:25:13;5;5;
56688;PMS5003;42565;53.342;-1.534;2023-03-31T05:27:40;5;4;
56688;PMS5003;42565;53.342;-1.534;2023-03-31T05:30:08;4;4;
56688;PMS5003;42565;53.342;-1.534;2023-03-31T05:32:36;5;4;
56688;PMS5003;42565;53.342;-1.534;2023-03-31T05:35:03;5;5;
56688;PMS5003;42565;53.342;-1.534;2023-03-31T05:37:31;4;4;
56688;PMS5003;42565;53.342;-1.534;2023-03-31T05:39:58;5;5;
56688;PMS5003;42565;53.342;-1.534;2023-03-31T05:42:25;4;4;
56688;PMS5003;42565;53.342;-1.534;2023-03-31T05:44:52;3;1;
56688;PMS5003;42565;53.342;-1.534;2023-03-31T05:47:19;5;5;
56688;PMS5003;42565;53.342;-1.534;2023-03-31T05:49:45;5;5;
56688;PMS5003;42565;53.342;-1.534;2023-03-31T05:52:12;6;6;
56688;PMS5003;42565;53.342;-1.534;2023-03-31T05:54:39;5;5;
56688;PMS5003;42565;53.342;-1.534;2023-03-31T05:57:06;6;6;
56688;PMS5003;42565;53.342;-1.534;2023-03-31T05:59:33;7;7;
56688;PMS5003;42565;53.342;-1.534;2023-03-31T06:02:01;6;5;
56688;PMS5003;42565;53.342;-1.534;2023-03-31T06:04:28;5;5;
56688;PMS5003;42565;53.342;-1.534;2023-03-31T06:06:56;7;7;
56688;PMS5003;42565;53.342;-1.534;2023-03-31T06:09:24;7;7;
56688;PMS5003;42565;53.342;-1.534;2023-03-31T06:11:51;6;5;
56688;PMS5003;42565;53.342;-1.534;2023-03-31T06:14:19;4;4;
56688;PMS5003;42565;53.342;-1.534;2023-03-31T06:16:45;6;6;
56688;PMS5003;42565;53.342;-1.534;2023-03-31T06:19:12;4;4;
56688;PMS5003;42565;53.342;-1.534;2023-03-31T06:21:40;7;6;
56688;PMS5003;42565;53.342;-1.534;2023-03-31T06:24:07;6;5;
56688;PMS5003;42565;53.342;-1.534;2023-03-31T06:26:34;6;6;
56688;PMS5003;42565;53.342;-1.534;2023-03-31T06:29:01;9;7;
56688;PMS5003;42565;53.342;-1.534;2023-03-31T06:31:28;5;5;
56688;PMS5003;42565;53.342;-1.534;2023-03-31T06:33:55;6;6;
56688;PMS5003;42565;53.342;-1.534;2023-03-31T06:36:22;6;5;
56688;PMS5003;42565;53.342;-1.534;2023-03-31T06:38:50;5;5;
56688;PMS5003;42565;53.342;-1.534;2023-03-31T06:41:17;6;6;
56688;PMS5003;42565;53.342;-1.534;2023-03-31T06:43:45;7;7;
56688;PMS5003;42565;53.342;-1.534;2023-03-31T06:46:11;6;5;
56688;PMS5003;42565;53.342;-1.534;2023-03-31T06:48:39;6;6;
56688;PMS5003;42565;53.342;-1.534;2023-03-31T06:51:07;5;5;
56688;PMS5003;42565;53.342;-1.534;2023-03-31T06:53:34;6;6;
56688;PMS5003;42565;53.342;-1.534;2023-03-31T06:56:02;8;8;
56688;PMS5003;42565;53.342;-1.534;2023-03-31T06:58:29;6;6;
56688;PMS5003;42565;53.342;-1.534;2023-03-31T07:00:57;8;8;
56688;PMS5003;42565;53.342;-1.534;2023-03-31T07:03:27;10;8;
56688;PMS5003;42565;53.342;-1.534;2023-03-31T07:05:54;8;7;
56688;PMS5003;42565;53.342;-1.534;2023-03-31T07:08:21;8;7;
56688;PMS5003;42565;53.342;-1.534;2023-03-31T07:10:51;9;8;
56688;PMS5003;42565;53.342;-1.534;2023-03-31T07:13:20;8;8;
56688;PMS5003;42565;53.342;-1.534;2023-03-31T07:15:47;10;9;
56688;PMS5003;42565;53.342;-1.534;2023-03-31T07:18:16;6;6;
56688;PMS5003;42565;53.342;-1.534;2023-03-31T07:20:46;7;7;
56688;PMS5003;42565;53.342;-1.534;2023-03-31T07:23:14;7;6;
56688;PMS5003;42565;53.342;-1.534;2023-03-31T07:25:42;6;6;
56688;PMS5003;42565;53.342;-1.534;2023-03-31T07:28:09;10;7;
56688;PMS5003;42565;53.342;-1.534;2023-03-31T07:30:36;8;7;
56688;PMS5003;42565;53.342;-1.534;2023-03-31T07:33:04;9;8;
56688;PMS5003;42565;53.342;-1.534;2023-03-31T07:35:31;8;8;
56688;PMS5003;42565;53.342;-1.534;2023-03-31T07:37:58;9;9;
56688;PMS5003;42565;53.342;-1.534;2023-03-31T07:40:27;9;9;
56688;PMS5003;42565;53.342;-1.534;2023-03-31T07:42:55;8;8;
56688;PMS5003;42565;53.342;-1.534;2023-03-31T07:45:23;9;8;
56688;PMS5003;42565;53.342;-1.534;2023-03-31T07:47:51;8;8;
56688;PMS5003;42565;53.342;-1.534;2023-03-31T07:50:19;6;6;
56688;PMS5003;42565;53.342;-1.534;2023-03-31T07:52:47;6;6;
56688;PMS5003;42565;53.342;-1.534;2023-03-31T07:55:16;7;5;
56688;PMS5003;42565;53.342;-1.534;2023-03-31T07:57:49;7;7;
56688;PMS5003;42565;53.342;-1.534;2023-03-31T08:00:16;7;7;
56688;PMS5003;42565;53.342;-1.534;2023-03-31T08:02:44;5;5;
56688;PMS5003;42565;53.342;-1.534;2023-03-31T08:05:12;5;5;
56688;PMS5003;42565;53.342;-1.534;2023-03-31T08:07:41;6;6;
56688;PMS5003;42565;53.342;-1.534;2023-03-31T08:10:11;5;4;
56688;PMS5003;42565;53.342;-1.534;2023-03-31T08:12:40;6;6;
56688;PMS5003;42565;53.342;-1.534;2023-03-31T08:15:07;4;4;
56688;PMS5003;42565;53.342;-1.534;2023-03-31T08:17:34;5;5;
56688;PMS5003;42565;53.342;-1.534;2023-03-31T08:20:02;7;7;
56688;PMS5003;42565;53.342;-1.534;2023-03-31T08:22:30;5;4;
56688;PMS5003;42565;53.342;-1.534;2023-03-31T08:24:57;5;4;
56688;PMS5003;42565;53.342;-1.534;2023-03-31T08:27:24;6;6;
56688;PMS5003;42565;53.342;-1.534;2023-03-31T08:29:52;5;5;
56688;PMS5003;42565;53.342;-1.534;2023-03-31T08:32:20;3;3;
56688;PMS5003;42565;53.342;-1.534;2023-03-31T08:34:48;5;5;
56688;PMS5003;42565;53.342;-1.534;2023-03-31T08:37:15;3;3;
56688;PMS5003;42565;53.342;-1.534;2023-03-31T08:39:43;5;5;
56688;PMS5003;42565;53.342;-1.534;2023-03-31T08:42:11;5;5;
56688;PMS5003;42565;53.342;-1.534;2023-03-31T08:44:46;6;5;
56688;PMS5003;42565;53.342;-1.534;2023-03-31T08:47:23;6;6;
56688;PMS5003;42565;53.342;-1.534;2023-03-31T08:49:55;8;8;
56688;PMS5003;42565;53.342;-1.534;2023-03-31T08:52:28;11;11;
56688;PMS5003;42565;53.342;-1.534;2023-03-31T08:55:00;10;10;
56688;PMS5003;42565;53.342;-1.534;2023-03-31T08:57:31;10;10;
56688;PMS5003;42565;53.342;-1.534;2023-03-31T09:00:08;13;13;
56688;PMS5003;42565;53.342;-1.534;2023-03-31T09:00:14;13;13;
56688;PMS5003;42565;53.342;-1.534;2023-03-31T09:02:45;15;15;
56688;PMS5003;42565;53.342;-1.534;2023-03-31T09:05:21;15;14;
56688;PMS5003;42565;53.342;-1.534;2023-03-31T09:08:02;13;13;
56688;PMS5003;42565;53.342;-1.534;2023-03-31T09:10:40;14;13;
56688;PMS5003;42565;53.342;-1.534;2023-03-31T09:13:19;11;11;
56688;PMS5003;42565;53.342;-1.534;2023-03-31T09:15:57;8;8;
56688;PMS5003;42565;53.342;-1.534;2023-03-31T09:18:30;10;9;
56688;PMS5003;42565;53.342;-1.534;2023-03-31T09:21:01;12;11;
56688;PMS5003;42565;53.342;-1.534;2023-03-31T09:23:33;12;11;
56688;PMS5003;42565;53.342;-1.534;2023-03-31T09:26:06;10;9;
56688;PMS5003;42565;53.342;-1.534;2023-03-31T09:28:48;12;12;
56688;PMS5003;42565;53.342;-1.534;2023-03-31T09:31:18;13;11;
56688;PMS5003;42565;53.342;-1.534;2023-03-31T09:33:47;13;10;
56688;PMS5003;42565;53.342;-1.534;2023-03-31T09:36:20;11;11;
56688;PMS5003;42565;53.342;-1.534;2023-03-31T09:38:47;12;12;
56688;PMS5003;42565;53.342;-1.534;2023-03-31T09:41:16;10;10;
56688;PMS5003;42565;53.342;-1.534;2023-03-31T09:43:45;14;12;
56688;PMS5003;42565;53.342;-1.534;2023-03-31T09:46:16;12;11;
56688;PMS5003;42565;53.342;-1.534;2023-03-31T09:48:49;14;13;
56688;PMS5003;42565;53.342;-1.534;2023-03-31T09:51:22;12;11;
56688;PMS5003;42565;53.342;-1.534;2023-03-31T09:53:55;14;14;
56688;PMS5003;42565;53.342;-1.534;2023-03-31T09:56:33;13;12;
56688;PMS5003;42565;53.342;-1.534;2023-03-31T09:59:12;13;11;
56688;PMS5003;42565;53.342;-1.534;2023-03-31T10:01:42;11;10;
56688;PMS5003;42565;53.342;-1.534;2023-03-31T10:04:15;9;9;
56688;PMS5003;42565;53.342;-1.534;2023-03-31T10:06:46;13;12;
56688;PMS5003;42565;53.342;-1.534;2023-03-31T10:09:14;13;13;
56688;PMS5003;42565;53.342;-1.534;2023-03-31T10:11:50;14;12;
56688;PMS5003;42565;53.342;-1.534;2023-03-31T10:14:23;13;11;
56688;PMS5003;42565;53.342;-1.534;2023-03-31T10:16:58;13;12;
56688;PMS5003;42565;53.342;-1.534;2023-03-31T10:19:31;12;12;
56688;PMS5003;42565;53.342;-1.534;2023-03-31T10:22:00;11;11;
56688;PMS5003;42565;53.342;-1.534;2023-03-31T10:24:35;11;10;
56688;PMS5003;42565;53.342;-1.534;2023-03-31T10:27:04;8;8;
56688;PMS5003;42565;53.342;-1.534;2023-03-31T10:29:39;9;8;
56688;PMS5003;42565;53.342;-1.534;2023-03-31T10:32:08;7;7;
56688;PMS5003;42565;53.342;-1.534;2023-03-31T10:34:41;6;6;
56688;PMS5003;42565;53.342;-1.534;2023-03-31T10:37:10;7;6;
56688;PMS5003;42565;53.342;-1.534;2023-03-31T10:39:43;7;6;
56688;PMS5003;42565;53.342;-1.534;2023-03-31T10:42:17;7;7;
56688;PMS5003;42565;53.342;-1.534;2023-03-31T10:44:46;7;6;
56688;PMS5003;42565;53.342;-1.534;2023-03-31T10:47:18;6;5;
56688;PMS5003;42565;53.342;-1.534;2023-03-31T10:49:48;8;7;
56688;PMS5003;42565;53.342;-1.534;2023-03-31T10:52:17;7;6;
56688;PMS5003;42565;53.342;-1.534;2023-03-31T10:54:47;11;8;
56688;PMS5003;42565;53.342;-1.534;2023-03-31T10:57:16;11;9;
56688;PMS5003;42565;53.342;-1.534;2023-03-31T10:59:53;9;8;
56688;PMS5003;42565;53.342;-1.534;2023-03-31T11:02:41;11;11;
56688;PMS5003;42565;53.342;-1.534;2023-03-31T11:05:26;12;12;
56688;PMS5003;42565;53.342;-1.534;2023-03-31T11:08:05;17;16;
56688;PMS5003;42565;53.342;-1.534;2023-03-31T11:10:52;17;16;
56688;PMS5003;42565;53.342;-1.534;2023-03-31T11:13:31;14;14;
56688;PMS5003;42565;53.342;-1.534;2023-03-31T11:16:14;13;11;
56688;PMS5003;42565;53.342;-1.534;2023-03-31T11:18:54;23;18;
56688;PMS5003;42565;53.342;-1.534;2023-03-31T11:21:34;24;22;
56688;PMS5003;42565;53.342;-1.534;2023-03-31T11:24:14;24;22;
56688;PMS5003;42565;53.342;-1.534;2023-03-31T11:26:54;18;18;
56688;PMS5003;42565;53.342;-1.534;2023-03-31T11:29:32;19;19;
56688;PMS5003;42565;53.342;-1.534;2023-03-31T11:32:13;18;16;
56688;PMS5003;42565;53.342;-1.534;2023-03-31T11:34:55;18;17;
56688;PMS5003;42565;53.342;-1.534;2023-03-31T11:37:42;14;14;
56688;PMS5003;42565;53.342;-1.534;2023-03-31T11:40:27;15;15;
56688;PMS5003;42565;53.342;-1.534;2023-03-31T11:43:06;11;11;
56688;PMS5003;42565;53.342;-1.534;2023-03-31T11:45:42;12;12;
56688;PMS5003;42565;53.342;-1.534;2023-03-31T11:48:15;11;11;
56688;PMS5003;42565;53.342;-1.534;2023-03-31T11:50:48;7;7;
56688;PMS5003;42565;53.342;-1.534;2023-03-31T11:53:18;7;7;
56688;PMS5003;42565;53.342;-1.534;2023-03-31T11:55:57;7;7;
56688;PMS5003;42565;53.342;-1.534;2023-03-31T11:58:29;8;8;
56688;PMS5003;42565;53.342;-1.534;2023-03-31T12:01:04;6;6;
56688;PMS5003;42565;53.342;-1.534;2023-03-31T12:03:41;5;5;
56688;PMS5003;42565;53.342;-1.534;2023-03-31T12:06:17;6;6;
56688;PMS5003;42565;53.342;-1.534;2023-03-31T12:08:49;5;5;
56688;PMS5003;42565;53.342;-1.534;2023-03-31T12:11:25;5;4;
56688;PMS5003;42565;53.342;-1.534;2023-03-31T12:14:00;6;5;
56688;PMS5003;42565;53.342;-1.534;2023-03-31T12:16:44;6;6;
56688;PMS5003;42565;53.342;-1.534;2023-03-31T12:19:16;6;6;
56688;PMS5003;42565;53.342;-1.534;2023-03-31T12:21:47;8;7;
56688;PMS5003;42565;53.342;-1.534;2023-03-31T12:24:17;8;8;
56688;PMS5003;42565;53.342;-1.534;2023-03-31T12:26:48;8;8;
56688;PMS5003;42565;53.342;-1.534;2023-03-31T12:29:26;8;8;
56688;PMS5003;42565;53.342;-1.534;2023-03-31T12:31:58;9;8;
56688;PMS5003;42565;53.342;-1.534;2023-03-31T12:34:29;10;9;
56688;PMS5003;42565;53.342;-1.534;2023-03-31T12:37:07;12;12;
56688;PMS5003;42565;53.342;-1.534;2023-03-31T12:40:25;13;11;
56688;PMS5003;42565;53.342;-1.534;2023-03-31T12:43:07;12;12;
56688;PMS5003;42565;53.342;-1.534;2023-03-31T12:45:54;8;8;
56688;PMS5003;42565;53.342;-1.534;2023-03-31T12:48:38;12;11;
56688;PMS5003;42565;53.342;-1.534;2023-03-31T12:51:21;10;9;
56688;PMS5003;42565;53.342;-1.534;2023-03-31T12:54:05;7;7;
56688;PMS5003;42565;53.342;-1.534;2023-03-31T12:57:18;8;8;
56688;PMS5003;42565;53.342;-1.534;2023-03-31T13:00:03;7;6;
56688;PMS5003;42565;53.342;-1.534;2023-03-31T13:02:44;7;5;
56688;PMS5003;42565;53.342;-1.534;2023-03-31T13:05:45;8;7;
56688;PMS5003;42565;53.342;-1.534;2023-03-31T13:08:47;8;6;
56688;PMS5003;42565;53.342;-1.534;2023-03-31T13:11:16;6;6;
56688;PMS5003;42565;53.342;-1.534;2023-03-31T13:13:45;4;4;
56688;PMS5003;42565;53.342;-1.534;2023-03-31T13:16:25;8;7;
56688;PMS5003;42565;53.342;-1.534;2023-03-31T13:18:52;10;9;
56688;PMS5003;42565;53.342;-1.534;2023-03-31T13:21:20;9;9;
56688;PMS5003;42565;53.342;-1.534;2023-03-31T13:23:48;13;13;
56688;PMS5003;42565;53.342;-1.534;2023-03-31T13:26:48;13;13;
56688;PMS5003;42565;53.342;-1.534;2023-03-31T13:29:18;13;11;
56688;PMS5003;42565;53.342;-1.534;2023-03-31T13:32:05;12;11;
56688;PMS5003;42565;53.342;-1.534;2023-03-31T13:34:44;11;11;
56688;PMS5003;42565;53.342;-1.534;2023-03-31T13:37:18;10;10;
56688;PMS5003;42565;53.342;-1.534;2023-03-31T13:39:59;13;12;
56688;PMS5003;42565;53.342;-1.534;2023-03-31T13:42:48;12;12;
56688;PMS5003;42565;53.342;-1.534;2023-03-31T13:45:36;16;15;
56688;PMS5003;42565;53.342;-1.534;2023-03-31T13:48:15;14;14;
56688;PMS5003;42565;53.342;-1.534;2023-03-31T13:50:56;14;14;
56688;PMS5003;42565;53.342;-1.534;2023-03-31T13:53:47;17;16;
56688;PMS5003;42565;53.342;-1.534;2023-03-31T13:56:38;18;17;
56688;PMS5003;42565;53.342;-1.534;2023-03-31T13:59:30;16;16;
56688;PMS5003;42565;53.342;-1.534;2023-03-31T14:04:28;20;20;
56688;PMS5003;42565;53.342;-1.534;2023-03-31T14:07:14;15;13;
56688;PMS5003;42565;53.342;-1.534;2023-03-31T14:09:46;15;13;
56688;PMS5003;42565;53.342;-1.534;2023-03-31T14:12:19;18;17;
56688;PMS5003;42565;53.342;-1.534;2023-03-31T14:14:51;16;14;
56688;PMS5003;42565;53.342;-1.534;2023-03-31T14:17:19;14;13;
56688;PMS5003;42565;53.342;-1.534;2023-03-31T14:20:07;15;12;
56688;PMS5003;42565;53.342;-1.534;2023-03-31T14:22:47;12;10;
56688;PMS5003;42565;53.342;-1.534;2023-03-31T14:25:28;12;12;
56688;PMS5003;42565;53.342;-1.534;2023-03-31T14:28:08;10;9;
56688;PMS5003;42565;53.342;-1.534;2023-03-31T14:30:49;12;11;
56688;PMS5003;42565;53.342;-1.534;2023-03-31T14:33:28;13;13;
56688;PMS5003;42565;53.342;-1.534;2023-03-31T14:36:05;15;15;
56688;PMS5003;42565;53.342;-1.534;2023-03-31T14:38:38;16;15;
56688;PMS5003;42565;53.342;-1.534;2023-03-31T14:41:05;25;21;
56688;PMS5003;42565;53.342;-1.534;2023-03-31T14:43:44;19;19;
56688;PMS5003;42565;53.342;-1.534;2023-03-31T14:46:18;24;21;
56688;PMS5003;42565;53.342;-1.534;2023-03-31T14:48:47;24;24;
56688;PMS5003;42565;53.342;-1.534;2023-03-31T14:51:16;19;17;
56688;PMS5003;42565;53.342;-1.534;2023-03-31T14:53:45;18;18;
56688;PMS5003;42565;53.342;-1.534;2023-03-31T14:56:13;19;19;
56688;PMS5003;42565;53.342;-1.534;2023-03-31T14:58:46;17;17;
56688;PMS5003;42565;53.342;-1.534;2023-03-31T15:01:17;19;19;
56688;PMS5003;42565;53.342;-1.534;2023-03-31T15:03:49;23;22;
56688;PMS5003;42565;53.342;-1.534;2023-03-31T15:06:18;19;18;
56688;PMS5003;42565;53.342;-1.534;2023-03-31T15:08:46;22;20;
56688;PMS5003;42565;53.342;-1.534;2023-03-31T15:11:14;22;20;
56688;PMS5003;42565;53.342;-1.534;2023-03-31T15:13:43;23;20;
56688;PMS5003;42565;53.342;-1.534;2023-03-31T15:16:27;21;20;
56688;PMS5003;42565;53.342;-1.534;2023-03-31T15:18:57;22;21;
56688;PMS5003;42565;53.342;-1.534;2023-03-31T15:21:27;20;18;
56688;PMS5003;42565;53.342;-1.534;2023-03-31T15:23:57;21;21;
56688;PMS5003;42565;53.342;-1.534;2023-03-31T15:26:25;19;17;
56688;PMS5003;42565;53.342;-1.534;2023-03-31T15:28:58;21;20;
56688;PMS5003;42565;53.342;-1.534;2023-03-31T15:31:30;20;20;
56688;PMS5003;42565;53.342;-1.534;2023-03-31T15:33:58;24;22;
56688;PMS5003;42565;53.342;-1.534;2023-03-31T15:36:26;21;20;
56688;PMS5003;42565;53.342;-1.534;2023-03-31T15:38:56;15;15;
56688;PMS5003;42565;53.342;-1.534;2023-03-31T15:41:27;15;12;
56688;PMS5003;42565;53.342;-1.534;2023-03-31T15:44:02;17;15;
56688;PMS5003;42565;53.342;-1.534;2023-03-31T15:46:47;14;14;
56688;PMS5003;42565;53.342;-1.534;2023-03-31T15:49:21;14;13;
56688;PMS5003;42565;53.342;-1.534;2023-03-31T15:51:50;11;9;
56688;PMS5003;42565;53.342;-1.534;2023-03-31T15:54:26;11;11;
56688;PMS5003;42565;53.342;-1.534;2023-03-31T15:56:58;10;9;
56688;PMS5003;42565;53.342;-1.534;2023-03-31T15:59:27;11;11;
56688;PMS5003;42565;53.342;-1.534;2023-03-31T16:01:56;8;7;
56688;PMS5003;42565;53.342;-1.534;2023-03-31T16:04:28;7;7;
56688;PMS5003;42565;53.342;-1.534;2023-03-31T16:06:58;9;8;
56688;PMS5003;42565;53.342;-1.534;2023-03-31T16:09:37;6;5;
56688;PMS5003;42565;53.342;-1.534;2023-03-31T16:12:10;6;5;
56688;PMS5003;42565;53.342;-1.534;2023-03-31T16:14:45;7;6;
56688;PMS5003;42565;53.342;-1.534;2023-03-31T16:17:18;6;6;
56688;PMS5003;42565;53.342;-1.534;2023-03-31T16:19:51;6;6;
56688;PMS5003;42565;53.342;-1.534;2023-03-31T16:22:25;7;7;
56688;PMS5003;42565;53.342;-1.534;2023-03-31T16:24:58;6;5;
56688;PMS5003;42565;53.342;-1.534;2023-03-31T16:27:25;6;6;
56688;PMS5003;42565;53.342;-1.534;2023-03-31T16:30:04;6;6;
56688;PMS5003;42565;53.342;-1.534;2023-03-31T16:32:35;7;7;
56688;PMS5003;42565;53.342;-1.534;2023-03-31T16:35:02;6;5;
56688;PMS5003;42565;53.342;-1.534;2023-03-31T16:37:30;6;6;
56688;PMS5003;42565;53.342;-1.534;2023-03-31T16:39:58;5;5;
56688;PMS5003;42565;53.342;-1.534;2023-03-31T16:42:25;8;6;
56688;PMS5003;42565;53.342;-1.534;2023-03-31T16:44:53;4;4;
56688;PMS5003;42565;53.342;-1.534;2023-03-31T16:47:20;6;5;
56688;PMS5003;42565;53.342;-1.534;2023-03-31T16:49:48;5;5;
56688;PMS5003;42565;53.342;-1.534;2023-03-31T16:52:16;9;8;
56688;PMS5003;42565;53.342;-1.534;2023-03-31T16:54:43;6;6;
56688;PMS5003;42565;53.342;-1.534;2023-03-31T16:57:11;7;6;
56688;PMS5003;42565;53.342;-1.534;2023-03-31T16:59:37;6;6;